createdAt,value
2023-03-18T00:00:13.326Z,96.56
2023-03-18T00:02:42.184Z,97.10
2023-03-18T00:05:11.471Z,96.90
2023-03-18T00:07:38.923Z,96.77
2023-03-18T00:10:10.017Z,97.89
2023-03-18T00:12:39.821Z,97.78
2023-03-18T00:15:16.134Z,97.12
2023-03-18T00:17:43.350Z,97.49
2023-03-18T00:20:13.459Z,97.66
2023-03-18T00:22:41.631Z,98.41
2023-03-18T00:25:12.693Z,98.85
2023-03-18T00:27:41.019Z,99.10
2023-03-18T00:30:09.142Z,99.97
2023-03-18T00:32:36.091Z,99.83
2023-03-18T00:35:03.755Z,98.74
2023-03-18T00:37:31.291Z,98.40
2023-03-18T00:40:05.179Z,97.93
2023-03-18T00:42:47.379Z,98.21
2023-03-18T00:45:17.267Z,98.28
2023-03-18T00:47:44.521Z,98.35
2023-03-18T00:50:12.407Z,99.31
2023-03-18T00:52:39.555Z,99.39
2023-03-18T00:55:08.455Z,99.15
2023-03-18T00:57:35.513Z,98.79
2023-03-18T01:00:05.284Z,98.32
2023-03-18T01:02:32.112Z,98.42
2023-03-18T01:04:59.232Z,98.03
2023-03-18T01:07:26.235Z,97.87
2023-03-18T01:09:53.023Z,97.39
2023-03-18T01:12:19.868Z,96.84
2023-03-18T01:14:48.121Z,97.10
2023-03-18T01:17:15.437Z,97.62
2023-03-18T01:19:43.443Z,97.38
2023-03-18T01:22:10.600Z,97.44
2023-03-18T01:24:37.316Z,97.72
2023-03-18T01:27:06.183Z,98.11
2023-03-18T01:29:34.189Z,98.03
2023-03-18T01:32:02.874Z,97.79
2023-03-18T01:34:30.821Z,97.46
2023-03-18T01:36:58.703Z,97.69
2023-03-18T01:39:25.708Z,97.83
2023-03-18T01:41:52.676Z,98.04
2023-03-18T01:44:25.503Z,97.86
2023-03-18T01:46:53.498Z,98.49
2023-03-18T01:49:43.499Z,99.10
2023-03-18T01:52:18.116Z,99.34
2023-03-18T01:55:07.052Z,100.00
2023-03-18T01:57:34.879Z,100.00
2023-03-18T02:00:04.438Z,100.00
2023-03-18T02:02:33.917Z,100.00
2023-03-18T02:05:06.485Z,100.00
2023-03-18T02:07:35.553Z,100.00
2023-03-18T02:10:10.962Z,100.00
2023-03-18T02:12:43.900Z,100.00
2023-03-18T02:15:15.006Z,99.96
2023-03-18T02:17:57.682Z,99.35
2023-03-18T02:20:52.255Z,99.84
2023-03-18T02:23:56.738Z,98.98
2023-03-18T02:26:35.412Z,99.18
2023-03-18T02:29:06.624Z,100.00
2023-03-18T02:31:36.973Z,100.00
2023-03-18T02:34:07.723Z,100.00
2023-03-18T02:36:36.588Z,100.00
2023-03-18T02:39:04.676Z,100.00
2023-03-18T02:41:35.672Z,100.00
2023-03-18T02:44:03.308Z,99.70
2023-03-18T02:46:41.413Z,98.20
2023-03-18T02:49:09.265Z,100.00
2023-03-18T02:51:37.746Z,100.00
2023-03-18T02:54:12.228Z,100.00
2023-03-18T02:56:41.573Z,100.00
2023-03-18T02:59:10.162Z,100.00
2023-03-18T03:01:38.948Z,100.00
2023-03-18T03:04:06.912Z,100.00
2023-03-18T03:06:34.990Z,100.00
2023-03-18T03:09:03.882Z,100.00
2023-03-18T03:11:31.103Z,100.00
2023-03-18T03:13:57.964Z,100.00
2023-03-18T03:16:25.203Z,100.00
2023-03-18T03:18:52.078Z,99.19
2023-03-18T03:21:18.953Z,96.16
2023-03-18T03:23:47.733Z,95.69
2023-03-18T03:26:16.135Z,96.91
2023-03-18T03:28:43.482Z,97.79
2023-03-18T03:31:10.728Z,99.34
2023-03-18T03:33:43.541Z,100.00
2023-03-18T03:36:15.419Z,100.00
2023-03-18T03:38:43.430Z,100.00
2023-03-18T03:41:12.887Z,100.00
2023-03-18T03:43:41.443Z,100.00
2023-03-18T03:46:10.349Z,100.00
2023-03-18T03:48:39.383Z,100.00
2023-03-18T03:51:07.418Z,100.00
2023-03-18T03:53:35.922Z,100.00
2023-03-18T03:56:04.379Z,100.00
2023-03-18T03:58:31.417Z,100.00
2023-03-18T04:00:58.537Z,100.00
2023-03-18T04:03:25.819Z,100.00
2023-03-18T04:05:53.062Z,100.00
2023-03-18T04:08:20.654Z,100.00
2023-03-18T04:10:47.619Z,100.00
2023-03-18T04:13:14.520Z,100.00
2023-03-18T04:15:42.239Z,100.00
2023-03-18T04:18:09.282Z,100.00
2023-03-18T04:20:38.653Z,100.00
2023-03-18T04:23:07.288Z,100.00
2023-03-18T04:25:35.295Z,100.00
2023-03-18T04:28:03.471Z,100.00
2023-03-18T04:30:30.791Z,100.00
2023-03-18T04:32:59.497Z,100.00
2023-03-18T04:35:27.137Z,100.00
2023-03-18T04:37:54.609Z,100.00
2023-03-18T04:40:21.768Z,100.00
2023-03-18T04:42:48.777Z,100.00
2023-03-18T04:45:17.607Z,100.00
2023-03-18T04:47:45.420Z,100.00
2023-03-18T04:50:14.714Z,100.00
2023-03-18T04:52:42.726Z,100.00
2023-03-18T04:55:11.435Z,100.00
2023-03-18T04:57:38.720Z,100.00
2023-03-18T05:00:17.230Z,100.00
2023-03-18T05:02:44.476Z,100.00
2023-03-18T05:05:11.476Z,100.00
2023-03-18T05:07:38.948Z,100.00
2023-03-18T05:10:07.165Z,100.00
2023-03-18T05:12:35.497Z,100.00
2023-03-18T05:15:03.189Z,100.00
2023-03-18T05:17:30.144Z,100.00
2023-03-18T05:19:57.311Z,100.00
2023-03-18T05:22:25.253Z,100.00
2023-03-18T05:24:52.219Z,100.00
2023-03-18T05:27:20.128Z,100.00
2023-03-18T05:29:48.712Z,100.00
2023-03-18T05:32:16.664Z,100.00
2023-03-18T05:34:43.616Z,100.00
2023-03-18T05:37:14.215Z,100.00
2023-03-18T05:39:44.793Z,100.00
2023-03-18T05:42:12.537Z,100.00
2023-03-18T05:44:40.291Z,100.00
2023-03-18T05:47:08.504Z,100.00
2023-03-18T05:49:36.096Z,100.00
2023-03-18T05:52:03.531Z,100.00
2023-03-18T05:54:31.203Z,100.00
2023-03-18T05:56:58.366Z,100.00
2023-03-18T05:59:25.601Z,100.00
2023-03-18T06:01:53.886Z,100.00
2023-03-18T06:04:20.890Z,100.00
2023-03-18T06:06:49.620Z,100.00
2023-03-18T06:09:17.493Z,100.00
2023-03-18T06:11:45.572Z,100.00
2023-03-18T06:14:12.763Z,100.00
2023-03-18T06:16:41.594Z,100.00
2023-03-18T06:19:10.760Z,100.00
2023-03-18T06:21:39.365Z,100.00
2023-03-18T06:24:08.194Z,100.00
2023-03-18T06:26:35.416Z,100.00
2023-03-18T06:29:03.676Z,100.00
2023-03-18T06:31:31.156Z,100.00
2023-03-18T06:33:59.743Z,100.00
2023-03-18T06:36:27.950Z,100.00
2023-03-18T06:38:55.897Z,100.00
2023-03-18T06:41:22.979Z,100.00
2023-03-18T06:43:50.692Z,99.63
2023-03-18T06:46:18.591Z,98.68
2023-03-18T06:48:46.404Z,98.05
2023-03-18T06:51:13.436Z,98.09
2023-03-18T06:53:44.669Z,97.36
2023-03-18T06:56:13.309Z,96.81
2023-03-18T06:58:40.805Z,96.37
2023-03-18T07:01:08.320Z,96.46
2023-03-18T07:03:35.777Z,95.77
2023-03-18T07:06:04.288Z,95.40
2023-03-18T07:08:31.489Z,95.31
2023-03-18T07:10:58.646Z,95.28
2023-03-18T07:13:28.770Z,94.19
2023-03-18T07:15:56.714Z,93.29
2023-03-18T07:18:24.289Z,92.70
2023-03-18T07:20:51.137Z,92.33
2023-03-18T07:23:18.451Z,92.59
2023-03-18T07:25:45.276Z,92.96
2023-03-18T07:28:12.478Z,92.64
2023-03-18T07:30:39.644Z,92.14
2023-03-18T07:33:06.656Z,91.16
2023-03-18T07:35:33.790Z,91.39
2023-03-18T07:38:01.034Z,91.00
2023-03-18T07:40:28.003Z,90.29
2023-03-18T07:42:54.746Z,90.10
2023-03-18T07:45:21.790Z,89.41
2023-03-18T07:47:48.869Z,89.27
2023-03-18T07:50:16.130Z,89.37
2023-03-18T07:52:43.348Z,89.13
2023-03-18T07:55:11.864Z,89.11
2023-03-18T07:57:39.958Z,89.20
2023-03-18T08:00:11.329Z,88.74
2023-03-18T08:02:38.675Z,87.35
2023-03-18T08:05:09.362Z,86.92
2023-03-18T08:07:36.974Z,86.66
2023-03-18T08:10:04.837Z,85.96
2023-03-18T08:12:45.318Z,86.43
2023-03-18T08:15:18.205Z,85.00
2023-03-18T08:17:45.014Z,84.61
2023-03-18T08:20:12.599Z,83.33
2023-03-18T08:22:39.841Z,82.00
2023-03-18T08:25:07.533Z,79.68
2023-03-18T08:27:34.488Z,77.13
2023-03-18T08:30:03.668Z,75.39
2023-03-18T08:32:31.015Z,74.23
2023-03-18T08:34:57.900Z,73.89
2023-03-18T08:37:24.814Z,71.97
2023-03-18T08:39:51.823Z,70.29
2023-03-18T08:42:19.159Z,69.14
2023-03-18T08:44:46.035Z,66.88
2023-03-18T08:47:13.331Z,65.39
2023-03-18T08:49:40.155Z,63.44
2023-03-18T08:52:08.327Z,63.10
2023-03-18T08:54:35.164Z,62.13
2023-03-18T08:57:02.585Z,60.29
2023-03-18T08:59:29.547Z,60.19
2023-03-18T09:01:56.421Z,58.11
2023-03-18T09:04:25.469Z,58.04
2023-03-18T09:06:52.317Z,56.90
2023-03-18T09:09:19.455Z,52.68
2023-03-18T09:11:47.766Z,53.21
2023-03-18T09:14:14.919Z,54.06
2023-03-18T09:16:41.741Z,53.00
2023-03-18T09:19:08.686Z,52.95
2023-03-18T09:21:35.950Z,56.33
2023-03-18T09:24:04.617Z,49.22
2023-03-18T09:26:32.848Z,51.18
2023-03-18T09:28:59.735Z,51.00
2023-03-18T09:31:26.998Z,51.44
2023-03-18T09:33:53.904Z,51.62
2023-03-18T09:36:20.749Z,54.32
2023-03-18T09:38:47.585Z,50.35
2023-03-18T09:41:32.782Z,52.50
2023-03-18T09:44:34.319Z,56.85
2023-03-18T09:47:23.724Z,54.59
2023-03-18T09:50:27.605Z,55.15
2023-03-18T09:53:16.598Z,53.23
2023-03-18T09:55:52.384Z,54.35
2023-03-18T09:58:59.764Z,51.38
2023-03-18T10:01:29.062Z,50.06
2023-03-18T10:04:28.682Z,51.59
2023-03-18T10:07:06.080Z,46.75
2023-03-18T10:09:59.364Z,51.85
2023-03-18T10:12:37.964Z,46.46
2023-03-18T10:15:18.742Z,48.82
2023-03-18T10:17:59.919Z,52.38
2023-03-18T10:20:39.183Z,46.67
2023-03-18T10:23:45.046Z,49.93
2023-03-18T10:26:47.118Z,49.35
2023-03-18T10:29:34.026Z,49.44
2023-03-18T10:32:23.354Z,46.34
2023-03-18T10:35:21.237Z,47.30
2023-03-18T10:38:12.733Z,50.37
2023-03-18T10:40:43.414Z,44.28
2023-03-18T10:43:25.282Z,44.39
2023-03-18T10:46:03.527Z,43.04
2023-03-18T10:48:53.006Z,43.40
2023-03-18T10:51:48.574Z,41.68
2023-03-18T10:54:38.632Z,49.58
2023-03-18T10:57:05.530Z,42.37
2023-03-18T10:59:35.263Z,39.63
2023-03-18T11:02:13.011Z,42.66
2023-03-18T11:04:51.965Z,38.71
2023-03-18T11:07:26.906Z,42.63
2023-03-18T11:09:54.784Z,37.76
2023-03-18T11:12:28.798Z,38.11
2023-03-18T11:14:56.356Z,40.39
2023-03-18T11:17:27.978Z,44.38
2023-03-18T11:20:16.937Z,42.52
2023-03-18T11:22:51.960Z,47.98
2023-03-18T11:25:25.686Z,44.09
2023-03-18T11:28:02.835Z,43.57
2023-03-18T11:30:44.199Z,40.90
2023-03-18T11:33:11.739Z,37.42
2023-03-18T11:35:52.331Z,38.36
2023-03-18T11:38:32.862Z,35.33
2023-03-18T11:41:37.993Z,33.40
2023-03-18T11:44:18.413Z,32.31
2023-03-18T11:46:59.684Z,32.49
2023-03-18T11:49:29.361Z,32.85
2023-03-18T11:52:26.824Z,32.11
2023-03-18T11:55:16.098Z,31.50
2023-03-18T11:58:32.692Z,30.66
2023-03-18T12:01:35.720Z,31.95
2023-03-18T12:04:21.933Z,30.30
2023-03-18T12:07:19.244Z,28.77
2023-03-18T12:10:04.346Z,29.03
2023-03-18T12:12:59.757Z,28.86
2023-03-18T12:15:47.832Z,28.65
2023-03-18T12:18:37.157Z,28.27
2023-03-18T12:21:58.362Z,28.31
2023-03-18T12:24:48.629Z,28.28
2023-03-18T12:27:39.255Z,28.62
2023-03-18T12:30:25.077Z,29.21
2023-03-18T12:33:04.105Z,29.44
2023-03-18T12:35:53.603Z,29.96
2023-03-18T12:39:05.920Z,29.69
2023-03-18T12:42:03.048Z,27.44
2023-03-18T12:44:58.461Z,27.66
2023-03-18T12:48:05.178Z,28.18
2023-03-18T12:51:01.107Z,27.31
2023-03-18T12:53:36.705Z,27.26
2023-03-18T12:56:21.008Z,27.18
2023-03-18T12:59:02.475Z,27.73
2023-03-18T13:01:42.458Z,28.76
2023-03-18T13:04:30.463Z,28.86
2023-03-18T13:07:18.537Z,29.90
2023-03-18T13:09:59.471Z,30.65
2023-03-18T13:12:41.600Z,30.80
2023-03-18T13:15:18.306Z,30.54
2023-03-18T13:17:49.309Z,31.27
2023-03-18T13:20:47.710Z,30.83
2023-03-18T13:24:00.974Z,28.43
2023-03-18T13:26:54.642Z,28.33
2023-03-18T13:29:47.162Z,27.76
2023-03-18T13:32:34.454Z,27.25
2023-03-18T13:35:51.576Z,27.81
2023-03-18T13:38:41.340Z,28.31
2023-03-18T13:41:25.416Z,28.83
2023-03-18T13:43:56.601Z,30.10
2023-03-18T13:46:28.882Z,30.92
2023-03-18T13:49:00.400Z,30.73
2023-03-18T13:51:28.727Z,30.89
2023-03-18T13:54:02.101Z,31.19
2023-03-18T13:56:32.923Z,32.54
2023-03-18T13:59:07.537Z,33.57
2023-03-18T14:01:48.450Z,33.87
2023-03-18T14:04:32.053Z,34.23
2023-03-18T14:07:20.938Z,34.95
2023-03-18T14:10:18.388Z,35.78
2023-03-18T14:12:48.286Z,35.76
2023-03-18T14:15:15.757Z,36.03
2023-03-18T14:17:58.158Z,35.79
2023-03-18T14:20:38.729Z,36.09
2023-03-18T14:23:24.294Z,36.41
2023-03-18T14:26:02.684Z,36.04
2023-03-18T14:28:40.564Z,36.08
2023-03-18T14:31:30.259Z,35.67
2023-03-18T14:34:23.334Z,36.58
2023-03-18T14:36:53.086Z,36.46
2023-03-18T14:39:34.327Z,36.88
2023-03-18T14:42:11.108Z,37.52
2023-03-18T14:44:52.621Z,37.77
2023-03-18T14:47:38.210Z,37.40
2023-03-18T14:50:29.508Z,37.56
2023-03-18T14:53:27.006Z,38.06
2023-03-18T14:55:57.201Z,37.43
2023-03-18T14:58:26.358Z,37.60
2023-03-18T15:01:05.818Z,37.39
2023-03-18T15:03:42.434Z,37.81
2023-03-18T15:06:22.980Z,37.67
2023-03-18T15:08:58.662Z,37.67
2023-03-18T15:11:26.106Z,37.93
2023-03-18T15:14:00.127Z,38.01
2023-03-18T15:16:32.847Z,38.41
2023-03-18T15:19:00.153Z,38.11
2023-03-18T15:21:32.435Z,38.42
2023-03-18T15:24:07.605Z,38.60
2023-03-18T15:26:39.093Z,38.88
2023-03-18T15:29:28.156Z,38.65
2023-03-18T15:32:14.895Z,38.78
2023-03-18T15:34:45.045Z,39.07
2023-03-18T15:37:40.548Z,39.14
2023-03-18T15:40:28.931Z,39.13
2023-03-18T15:43:27.194Z,38.35
2023-03-18T15:45:58.844Z,38.17
2023-03-18T15:48:54.084Z,38.33
2023-03-18T15:51:44.893Z,38.05
2023-03-18T15:54:28.425Z,38.40
2023-03-18T15:56:58.300Z,38.46
2023-03-18T15:59:31.094Z,38.64
2023-03-18T16:01:59.875Z,38.70
2023-03-18T16:04:32.987Z,38.71
2023-03-18T16:06:59.802Z,38.50
2023-03-18T16:09:26.994Z,38.70
2023-03-18T16:12:00.587Z,38.66
2023-03-18T16:14:43.015Z,38.82
2023-03-18T16:17:21.496Z,39.58
2023-03-18T16:19:53.667Z,39.85
2023-03-18T16:22:20.560Z,39.37
2023-03-18T16:24:47.764Z,39.83
2023-03-18T16:27:39.649Z,40.61
2023-03-18T16:30:17.755Z,40.37
2023-03-18T16:32:45.979Z,40.24
2023-03-18T16:35:19.247Z,39.71
2023-03-18T16:37:48.420Z,39.99
2023-03-18T16:40:24.459Z,40.35
2023-03-18T16:42:52.645Z,39.69
2023-03-18T16:45:33.148Z,39.91
2023-03-18T16:48:06.693Z,39.95
2023-03-18T16:50:37.499Z,39.56
2023-03-18T16:53:27.078Z,40.22
2023-03-18T16:56:18.904Z,40.19
2023-03-18T16:58:45.749Z,40.68
2023-03-18T17:01:16.472Z,40.54
2023-03-18T17:03:44.251Z,40.64
2023-03-18T17:06:12.550Z,41.65
2023-03-18T17:08:40.082Z,41.38
2023-03-18T17:11:07.494Z,41.88
2023-03-18T17:13:38.035Z,42.36
2023-03-18T17:16:05.398Z,43.08
2023-03-18T17:18:33.197Z,44.52
2023-03-18T17:21:03.544Z,47.25
2023-03-18T17:23:30.494Z,46.41
2023-03-18T17:26:00.547Z,46.89
2023-03-18T17:28:43.089Z,47.43
2023-03-18T17:31:13.449Z,47.48
2023-03-18T17:33:41.103Z,47.58
2023-03-18T17:36:09.146Z,48.32
2023-03-18T17:38:36.606Z,49.12
2023-03-18T17:41:16.378Z,49.45
2023-03-18T17:43:44.001Z,50.04
2023-03-18T17:46:11.173Z,50.19
2023-03-18T17:48:39.537Z,51.09
2023-03-18T17:51:19.846Z,51.58
2023-03-18T17:53:49.913Z,51.38
2023-03-18T17:56:19.141Z,51.63
2023-03-18T17:58:51.862Z,51.65
2023-03-18T18:01:27.043Z,51.25
2023-03-18T18:03:59.544Z,50.92
2023-03-18T18:06:29.308Z,51.39
2023-03-18T18:09:01.130Z,51.79
2023-03-18T18:11:39.600Z,52.25
2023-03-18T18:14:39.796Z,52.91
2023-03-18T18:17:14.291Z,53.45
2023-03-18T18:19:41.569Z,54.62
2023-03-18T18:22:21.896Z,55.01
2023-03-18T18:24:50.284Z,55.65
2023-03-18T18:27:17.218Z,55.64
2023-03-18T18:29:47.071Z,55.41
2023-03-18T18:32:15.634Z,54.83
2023-03-18T18:34:42.607Z,54.98
2023-03-18T18:37:09.965Z,55.83
2023-03-18T18:39:36.719Z,55.99
2023-03-18T18:42:04.266Z,56.56
2023-03-18T18:44:31.719Z,57.42
2023-03-18T18:46:59.369Z,58.22
2023-03-18T18:49:26.452Z,58.78
2023-03-18T18:51:55.846Z,59.22
2023-03-18T18:54:24.606Z,59.62
2023-03-18T18:56:52.180Z,60.22
2023-03-18T18:59:28.847Z,59.19
2023-03-18T19:01:56.884Z,59.39
2023-03-18T19:04:25.214Z,59.81
2023-03-18T19:06:53.753Z,60.65
2023-03-18T19:09:25.280Z,61.29
2023-03-18T19:11:55.996Z,61.97
2023-03-18T19:14:26.390Z,61.92
2023-03-18T19:16:58.499Z,60.99
2023-03-18T19:19:32.216Z,61.88
2023-03-18T19:21:59.133Z,61.51
2023-03-18T19:24:37.032Z,61.46
2023-03-18T19:27:15.483Z,62.29
2023-03-18T19:29:42.732Z,62.75
2023-03-18T19:32:19.278Z,62.84
2023-03-18T19:34:48.163Z,63.66
2023-03-18T19:37:27.112Z,64.50
2023-03-18T19:39:56.266Z,65.05
2023-03-18T19:42:23.543Z,65.29
2023-03-18T19:44:50.442Z,65.57
2023-03-18T19:47:28.039Z,65.79
2023-03-18T19:49:55.317Z,66.16
2023-03-18T19:52:27.037Z,66.80
2023-03-18T19:54:55.260Z,66.56
2023-03-18T19:57:32.462Z,66.59
2023-03-18T20:00:04.833Z,66.64
2023-03-18T20:02:34.256Z,66.85
2023-03-18T20:05:14.380Z,67.53
2023-03-18T20:07:41.340Z,68.04
2023-03-18T20:10:11.761Z,67.95
2023-03-18T20:12:43.247Z,67.90
2023-03-18T20:15:23.304Z,67.88
2023-03-18T20:17:52.514Z,68.04
2023-03-18T20:20:24.815Z,67.94
2023-03-18T20:23:01.099Z,67.90
2023-03-18T20:25:44.600Z,68.40
2023-03-18T20:28:17.238Z,69.47
2023-03-18T20:30:46.755Z,69.65
2023-03-18T20:33:14.265Z,68.95
2023-03-18T20:35:44.917Z,68.34
2023-03-18T20:38:39.046Z,68.16
2023-03-18T20:41:17.946Z,67.97
2023-03-18T20:43:47.908Z,68.83
2023-03-18T20:46:15.780Z,69.25
2023-03-18T20:48:43.836Z,69.45
2023-03-18T20:51:22.132Z,70.06
2023-03-18T20:53:50.324Z,69.98
2023-03-18T20:56:19.314Z,70.33
2023-03-18T20:58:46.321Z,70.65
2023-03-18T21:01:14.072Z,70.20
2023-03-18T21:03:42.072Z,69.89
2023-03-18T21:06:16.101Z,69.73
2023-03-18T21:08:43.540Z,70.21
2023-03-18T21:11:29.862Z,70.94
2023-03-18T21:13:56.927Z,71.14
2023-03-18T21:16:37.182Z,71.32
2023-03-18T21:19:04.688Z,71.39
2023-03-18T21:21:40.173Z,71.38
2023-03-18T21:24:26.849Z,71.43
2023-03-18T21:27:04.333Z,71.56
2023-03-18T21:29:33.510Z,71.31
2023-03-18T21:32:00.886Z,71.68
2023-03-18T21:34:27.814Z,72.00
2023-03-18T21:36:54.684Z,71.82
2023-03-18T21:39:24.855Z,70.98
2023-03-18T21:41:52.147Z,71.24
2023-03-18T21:44:19.204Z,71.81
2023-03-18T21:46:45.953Z,71.52
2023-03-18T21:49:12.721Z,71.73
2023-03-18T21:51:40.510Z,72.01
2023-03-18T21:54:18.356Z,72.05
2023-03-18T21:56:46.090Z,71.88
2023-03-18T21:59:12.841Z,71.86
2023-03-18T22:01:40.108Z,71.12
2023-03-18T22:04:07.417Z,71.90
2023-03-18T22:06:34.692Z,72.67
2023-03-18T22:09:02.781Z,73.61
2023-03-18T22:11:31.111Z,73.17
2023-03-18T22:13:58.045Z,73.35
2023-03-18T22:16:25.310Z,73.37
2023-03-18T22:18:52.883Z,73.41
2023-03-18T22:21:27.353Z,74.75
2023-03-18T22:23:55.532Z,74.82
2023-03-18T22:26:22.609Z,74.16
2023-03-18T22:28:50.917Z,74.67
2023-03-18T22:31:26.483Z,74.29
2023-03-18T22:33:54.910Z,73.60
2023-03-18T22:36:21.943Z,74.08
2023-03-18T22:38:49.880Z,73.95
2023-03-18T22:41:31.286Z,73.83
2023-03-18T22:43:59.986Z,73.84
2023-03-18T22:46:28.322Z,74.68
2023-03-18T22:48:55.860Z,75.09
2023-03-18T22:51:29.639Z,74.90
2023-03-18T22:53:56.832Z,75.60
2023-03-18T22:56:23.942Z,76.35
2023-03-18T22:58:51.825Z,76.95
2023-03-18T23:01:26.530Z,77.07
2023-03-18T23:03:55.456Z,77.42
2023-03-18T23:06:27.081Z,77.61
2023-03-18T23:08:54.207Z,77.04
2023-03-18T23:11:21.510Z,77.06
2023-03-18T23:13:50.882Z,76.39
2023-03-18T23:16:23.691Z,77.00
2023-03-18T23:18:51.529Z,77.50
2023-03-18T23:21:23.196Z,77.63
2023-03-18T23:23:52.337Z,77.91
2023-03-18T23:26:20.422Z,78.31
2023-03-18T23:28:48.945Z,78.57
2023-03-18T23:31:16.672Z,78.94
2023-03-18T23:33:44.893Z,79.61
2023-03-18T23:36:12.394Z,79.95
2023-03-18T23:38:40.021Z,79.95
2023-03-18T23:41:08.047Z,80.53
2023-03-18T23:43:35.183Z,80.32
2023-03-18T23:46:03.350Z,80.10
2023-03-18T23:48:31.504Z,79.60
2023-03-18T23:50:58.833Z,79.50
2023-03-18T23:53:26.131Z,79.13
2023-03-18T23:55:53.179Z,78.99
2023-03-18T23:58:20.120Z,79.11
